sensor_id;sensor_type;location;lat;lon;timestamp;P1;durP1;ratioP1;P2;durP2;ratioP2
17283;SDS011;8760;52.248;20.952;2022-12-29T00:01:28;9.20;;;5.47;;
17283;SDS011;8760;52.248;20.952;2022-12-29T00:03:55;9.20;;;5.30;;
17283;SDS011;8760;52.248;20.952;2022-12-29T00:06:22;9.10;;;5.00;;
17283;SDS011;8760;52.248;20.952;2022-12-29T00:08:49;10.07;;;5.70;;
17283;SDS011;8760;52.248;20.952;2022-12-29T00:11:17;7.73;;;5.27;;
17283;SDS011;8760;52.248;20.952;2022-12-29T00:13:47;8.70;;;5.27;;
17283;SDS011;8760;52.248;20.952;2022-12-29T00:16:34;10.13;;;5.23;;
17283;SDS011;8760;52.248;20.952;2022-12-29T00:19:02;12.27;;;5.20;;
17283;SDS011;8760;52.248;20.952;2022-12-29T00:21:30;8.57;;;5.10;;
17283;SDS011;8760;52.248;20.952;2022-12-29T00:24:15;8.53;;;5.10;;
17283;SDS011;8760;52.248;20.952;2022-12-29T00:27:09;7.93;;;4.87;;
17283;SDS011;8760;52.248;20.952;2022-12-29T00:30:02;7.53;;;4.93;;
17283;SDS011;8760;52.248;20.952;2022-12-29T00:32:51;8.47;;;4.80;;
17283;SDS011;8760;52.248;20.952;2022-12-29T00:35:37;8.00;;;5.43;;
17283;SDS011;8760;52.248;20.952;2022-12-29T00:38:06;7.30;;;4.60;;
17283;SDS011;8760;52.248;20.952;2022-12-29T00:40:51;8.60;;;5.00;;
17283;SDS011;8760;52.248;20.952;2022-12-29T00:43:36;9.37;;;4.57;;
17283;SDS011;8760;52.248;20.952;2022-12-29T00:46:21;8.50;;;4.50;;
17283;SDS011;8760;52.248;20.952;2022-12-29T00:48:48;9.67;;;4.93;;
17283;SDS011;8760;52.248;20.952;2022-12-29T00:51:32;6.77;;;5.10;;
17283;SDS011;8760;52.248;20.952;2022-12-29T00:53:59;8.57;;;4.80;;
17283;SDS011;8760;52.248;20.952;2022-12-29T00:56:26;8.23;;;5.27;;
17283;SDS011;8760;52.248;20.952;2022-12-29T00:58:53;9.43;;;4.57;;
17283;SDS011;8760;52.248;20.952;2022-12-29T01:01:21;9.47;;;4.97;;
17283;SDS011;8760;52.248;20.952;2022-12-29T01:03:48;7.60;;;4.10;;
17283;SDS011;8760;52.248;20.952;2022-12-29T01:06:15;8.70;;;4.83;;
17283;SDS011;8760;52.248;20.952;2022-12-29T01:08:42;7.83;;;4.40;;
17283;SDS011;8760;52.248;20.952;2022-12-29T01:11:09;8.17;;;4.67;;
17283;SDS011;8760;52.248;20.952;2022-12-29T01:13:37;9.43;;;4.60;;
17283;SDS011;8760;52.248;20.952;2022-12-29T01:16:06;8.20;;;3.87;;
17283;SDS011;8760;52.248;20.952;2022-12-29T01:18:34;7.67;;;3.93;;
17283;SDS011;8760;52.248;20.952;2022-12-29T01:21:02;7.53;;;3.97;;
17283;SDS011;8760;52.248;20.952;2022-12-29T01:23:31;6.60;;;4.47;;
17283;SDS011;8760;52.248;20.952;2022-12-29T01:26:07;7.03;;;4.13;;
17283;SDS011;8760;52.248;20.952;2022-12-29T01:28:34;7.63;;;4.17;;
17283;SDS011;8760;52.248;20.952;2022-12-29T01:31:03;7.03;;;4.17;;
17283;SDS011;8760;52.248;20.952;2022-12-29T01:33:30;6.17;;;3.70;;
17283;SDS011;8760;52.248;20.952;2022-12-29T01:36:00;8.87;;;4.20;;
17283;SDS011;8760;52.248;20.952;2022-12-29T01:38:27;6.93;;;4.03;;
17283;SDS011;8760;52.248;20.952;2022-12-29T01:40:54;7.67;;;3.97;;
17283;SDS011;8760;52.248;20.952;2022-12-29T01:43:37;7.83;;;3.77;;
17283;SDS011;8760;52.248;20.952;2022-12-29T01:46:06;6.17;;;4.20;;
17283;SDS011;8760;52.248;20.952;2022-12-29T01:48:39;8.47;;;4.60;;
17283;SDS011;8760;52.248;20.952;2022-12-29T01:51:07;6.13;;;3.97;;
17283;SDS011;8760;52.248;20.952;2022-12-29T01:53:34;6.33;;;4.40;;
17283;SDS011;8760;52.248;20.952;2022-12-29T01:56:03;9.83;;;4.30;;
17283;SDS011;8760;52.248;20.952;2022-12-29T01:58:34;6.13;;;3.90;;
17283;SDS011;8760;52.248;20.952;2022-12-29T02:01:06;7.00;;;4.00;;
17283;SDS011;8760;52.248;20.952;2022-12-29T02:03:33;7.27;;;4.33;;
17283;SDS011;8760;52.248;20.952;2022-12-29T02:06:02;8.43;;;4.27;;
17283;SDS011;8760;52.248;20.952;2022-12-29T02:08:32;6.17;;;3.80;;
17283;SDS011;8760;52.248;20.952;2022-12-29T02:10:59;6.03;;;3.80;;
17283;SDS011;8760;52.248;20.952;2022-12-29T02:13:27;6.43;;;3.70;;
17283;SDS011;8760;52.248;20.952;2022-12-29T02:15:57;5.93;;;4.00;;
17283;SDS011;8760;52.248;20.952;2022-12-29T02:18:33;6.73;;;3.93;;
17283;SDS011;8760;52.248;20.952;2022-12-29T02:21:12;6.07;;;3.80;;
17283;SDS011;8760;52.248;20.952;2022-12-29T02:27:34;6.20;;;3.60;;
17283;SDS011;8760;52.248;20.952;2022-12-29T02:30:12;8.50;;;4.00;;
17283;SDS011;8760;52.248;20.952;2022-12-29T02:33:12;8.03;;;4.30;;
17283;SDS011;8760;52.248;20.952;2022-12-29T02:35:49;6.13;;;4.20;;
17283;SDS011;8760;52.248;20.952;2022-12-29T02:38:25;6.77;;;3.90;;
17283;SDS011;8760;52.248;20.952;2022-12-29T02:41:04;6.17;;;3.87;;
17283;SDS011;8760;52.248;20.952;2022-12-29T02:43:37;5.27;;;3.70;;
17283;SDS011;8760;52.248;20.952;2022-12-29T02:46:09;5.53;;;3.73;;
17283;SDS011;8760;52.248;20.952;2022-12-29T02:48:43;6.57;;;4.47;;
17283;SDS011;8760;52.248;20.952;2022-12-29T02:51:15;8.50;;;3.70;;
17283;SDS011;8760;52.248;20.952;2022-12-29T02:53:47;7.03;;;3.90;;
17283;SDS011;8760;52.248;20.952;2022-12-29T02:56:32;7.37;;;4.33;;
17283;SDS011;8760;52.248;20.952;2022-12-29T02:58:59;6.57;;;3.70;;
17283;SDS011;8760;52.248;20.952;2022-12-29T03:01:32;6.20;;;3.57;;
17283;SDS011;8760;52.248;20.952;2022-12-29T03:04:35;8.87;;;4.37;;
17283;SDS011;8760;52.248;20.952;2022-12-29T03:07:09;6.93;;;3.93;;
17283;SDS011;8760;52.248;20.952;2022-12-29T03:09:43;5.50;;;3.50;;
17283;SDS011;8760;52.248;20.952;2022-12-29T03:12:21;7.13;;;3.87;;
17283;SDS011;8760;52.248;20.952;2022-12-29T03:15:12;8.30;;;4.23;;
17283;SDS011;8760;52.248;20.952;2022-12-29T03:18:04;6.23;;;3.70;;
17283;SDS011;8760;52.248;20.952;2022-12-29T03:20:38;7.20;;;3.83;;
17283;SDS011;8760;52.248;20.952;2022-12-29T03:23:09;5.60;;;3.77;;
17283;SDS011;8760;52.248;20.952;2022-12-29T03:25:37;5.33;;;3.43;;
17283;SDS011;8760;52.248;20.952;2022-12-29T03:28:09;5.70;;;3.50;;
17283;SDS011;8760;52.248;20.952;2022-12-29T03:30:39;6.40;;;3.80;;
17283;SDS011;8760;52.248;20.952;2022-12-29T03:33:09;5.23;;;3.60;;
17283;SDS011;8760;52.248;20.952;2022-12-29T03:35:40;7.77;;;3.80;;
17283;SDS011;8760;52.248;20.952;2022-12-29T03:38:10;5.13;;;3.57;;
17283;SDS011;8760;52.248;20.952;2022-12-29T03:40:41;6.93;;;3.47;;
17283;SDS011;8760;52.248;20.952;2022-12-29T03:43:11;9.00;;;4.07;;
17283;SDS011;8760;52.248;20.952;2022-12-29T03:45:38;5.97;;;4.03;;
17283;SDS011;8760;52.248;20.952;2022-12-29T03:48:05;4.57;;;3.40;;
17283;SDS011;8760;52.248;20.952;2022-12-29T03:50:32;7.50;;;3.70;;
17283;SDS011;8760;52.248;20.952;2022-12-29T03:53:00;7.87;;;3.70;;
17283;SDS011;8760;52.248;20.952;2022-12-29T03:55:27;4.80;;;3.30;;
17283;SDS011;8760;52.248;20.952;2022-12-29T03:57:54;6.70;;;3.50;;
17283;SDS011;8760;52.248;20.952;2022-12-29T04:00:21;7.33;;;3.67;;
17283;SDS011;8760;52.248;20.952;2022-12-29T04:02:48;5.10;;;3.57;;
17283;SDS011;8760;52.248;20.952;2022-12-29T04:05:15;5.37;;;3.30;;
17283;SDS011;8760;52.248;20.952;2022-12-29T04:07:42;4.63;;;3.73;;
17283;SDS011;8760;52.248;20.952;2022-12-29T04:10:10;6.03;;;3.50;;
17283;SDS011;8760;52.248;20.952;2022-12-29T04:12:37;6.50;;;3.53;;
17283;SDS011;8760;52.248;20.952;2022-12-29T04:15:04;4.97;;;3.27;;
17283;SDS011;8760;52.248;20.952;2022-12-29T04:17:32;6.17;;;3.80;;
17283;SDS011;8760;52.248;20.952;2022-12-29T04:19:58;8.30;;;4.00;;
17283;SDS011;8760;52.248;20.952;2022-12-29T04:22:39;6.67;;;3.57;;
17283;SDS011;8760;52.248;20.952;2022-12-29T04:25:06;9.50;;;4.40;;
17283;SDS011;8760;52.248;20.952;2022-12-29T04:27:35;8.50;;;3.73;;
17283;SDS011;8760;52.248;20.952;2022-12-29T04:30:02;5.43;;;3.57;;
17283;SDS011;8760;52.248;20.952;2022-12-29T04:32:30;4.77;;;3.50;;
17283;SDS011;8760;52.248;20.952;2022-12-29T04:34:57;6.33;;;3.90;;
17283;SDS011;8760;52.248;20.952;2022-12-29T04:37:24;7.50;;;4.00;;
17283;SDS011;8760;52.248;20.952;2022-12-29T04:39:50;6.43;;;3.80;;
17283;SDS011;8760;52.248;20.952;2022-12-29T04:42:17;8.00;;;4.30;;
17283;SDS011;8760;52.248;20.952;2022-12-29T04:44:46;9.97;;;4.40;;
17283;SDS011;8760;52.248;20.952;2022-12-29T04:47:13;8.20;;;4.40;;
17283;SDS011;8760;52.248;20.952;2022-12-29T04:49:39;9.70;;;4.43;;
17283;SDS011;8760;52.248;20.952;2022-12-29T04:52:06;7.97;;;4.50;;
17283;SDS011;8760;52.248;20.952;2022-12-29T04:54:33;10.10;;;4.30;;
17283;SDS011;8760;52.248;20.952;2022-12-29T04:57:00;7.97;;;4.53;;
17283;SDS011;8760;52.248;20.952;2022-12-29T04:59:27;7.80;;;4.77;;
17283;SDS011;8760;52.248;20.952;2022-12-29T05:01:55;7.13;;;4.27;;
17283;SDS011;8760;52.248;20.952;2022-12-29T05:04:22;8.00;;;4.87;;
17283;SDS011;8760;52.248;20.952;2022-12-29T05:06:49;8.53;;;4.80;;
17283;SDS011;8760;52.248;20.952;2022-12-29T05:09:16;11.83;;;5.27;;
17283;SDS011;8760;52.248;20.952;2022-12-29T05:11:43;11.67;;;4.83;;
17283;SDS011;8760;52.248;20.952;2022-12-29T05:14:10;8.07;;;4.57;;
17283;SDS011;8760;52.248;20.952;2022-12-29T05:16:36;11.20;;;5.00;;
17283;SDS011;8760;52.248;20.952;2022-12-29T05:19:05;10.83;;;5.43;;
17283;SDS011;8760;52.248;20.952;2022-12-29T05:21:31;8.97;;;5.07;;
17283;SDS011;8760;52.248;20.952;2022-12-29T05:23:58;9.67;;;4.90;;
17283;SDS011;8760;52.248;20.952;2022-12-29T05:26:25;10.17;;;5.43;;
17283;SDS011;8760;52.248;20.952;2022-12-29T05:28:52;11.10;;;5.63;;
17283;SDS011;8760;52.248;20.952;2022-12-29T05:31:19;10.10;;;5.63;;
17283;SDS011;8760;52.248;20.952;2022-12-29T05:33:46;12.80;;;5.77;;
17283;SDS011;8760;52.248;20.952;2022-12-29T05:36:14;7.57;;;4.50;;
17283;SDS011;8760;52.248;20.952;2022-12-29T05:38:41;13.30;;;6.27;;
17283;SDS011;8760;52.248;20.952;2022-12-29T05:41:08;11.43;;;5.40;;
17283;SDS011;8760;52.248;20.952;2022-12-29T05:43:35;12.90;;;5.80;;
17283;SDS011;8760;52.248;20.952;2022-12-29T05:46:02;13.03;;;5.73;;
17283;SDS011;8760;52.248;20.952;2022-12-29T05:48:29;10.47;;;5.60;;
17283;SDS011;8760;52.248;20.952;2022-12-29T05:50:56;11.87;;;5.47;;
17283;SDS011;8760;52.248;20.952;2022-12-29T05:53:24;11.50;;;4.80;;
17283;SDS011;8760;52.248;20.952;2022-12-29T05:55:51;10.67;;;5.73;;
17283;SDS011;8760;52.248;20.952;2022-12-29T05:58:18;8.97;;;5.20;;
17283;SDS011;8760;52.248;20.952;2022-12-29T06:00:46;11.17;;;5.30;;
17283;SDS011;8760;52.248;20.952;2022-12-29T06:03:13;11.53;;;5.50;;
17283;SDS011;8760;52.248;20.952;2022-12-29T06:05:40;10.63;;;5.13;;
17283;SDS011;8760;52.248;20.952;2022-12-29T06:08:06;8.17;;;4.70;;
17283;SDS011;8760;52.248;20.952;2022-12-29T06:10:35;7.73;;;4.73;;
17283;SDS011;8760;52.248;20.952;2022-12-29T06:13:01;11.17;;;5.70;;
17283;SDS011;8760;52.248;20.952;2022-12-29T06:15:30;11.57;;;5.50;;
17283;SDS011;8760;52.248;20.952;2022-12-29T06:17:57;10.00;;;5.50;;
17283;SDS011;8760;52.248;20.952;2022-12-29T06:20:24;9.70;;;4.97;;
17283;SDS011;8760;52.248;20.952;2022-12-29T06:22:51;9.00;;;5.17;;
17283;SDS011;8760;52.248;20.952;2022-12-29T06:25:18;12.57;;;5.00;;
17283;SDS011;8760;52.248;20.952;2022-12-29T06:27:46;9.13;;;4.90;;
17283;SDS011;8760;52.248;20.952;2022-12-29T06:30:13;8.43;;;5.17;;
17283;SDS011;8760;52.248;20.952;2022-12-29T06:32:42;8.93;;;5.00;;
17283;SDS011;8760;52.248;20.952;2022-12-29T06:35:09;11.63;;;5.37;;
17283;SDS011;8760;52.248;20.952;2022-12-29T06:37:36;9.77;;;5.33;;
17283;SDS011;8760;52.248;20.952;2022-12-29T06:40:03;12.37;;;5.27;;
17283;SDS011;8760;52.248;20.952;2022-12-29T06:42:30;8.43;;;5.23;;
17283;SDS011;8760;52.248;20.952;2022-12-29T06:44:58;9.50;;;5.10;;
17283;SDS011;8760;52.248;20.952;2022-12-29T06:47:25;10.93;;;5.37;;
17283;SDS011;8760;52.248;20.952;2022-12-29T06:49:52;9.73;;;5.73;;
17283;SDS011;8760;52.248;20.952;2022-12-29T06:52:19;8.93;;;5.47;;
17283;SDS011;8760;52.248;20.952;2022-12-29T06:54:46;8.63;;;4.30;;
17283;SDS011;8760;52.248;20.952;2022-12-29T06:57:13;10.90;;;4.73;;
17283;SDS011;8760;52.248;20.952;2022-12-29T06:59:40;8.80;;;4.63;;
17283;SDS011;8760;52.248;20.952;2022-12-29T07:02:09;8.43;;;4.23;;
17283;SDS011;8760;52.248;20.952;2022-12-29T07:04:37;8.80;;;4.80;;
17283;SDS011;8760;52.248;20.952;2022-12-29T07:07:03;9.67;;;4.87;;
17283;SDS011;8760;52.248;20.952;2022-12-29T07:09:30;8.43;;;4.80;;
17283;SDS011;8760;52.248;20.952;2022-12-29T07:11:57;7.90;;;5.07;;
17283;SDS011;8760;52.248;20.952;2022-12-29T07:14:24;9.87;;;5.07;;
17283;SDS011;8760;52.248;20.952;2022-12-29T07:16:51;7.73;;;4.67;;
17283;SDS011;8760;52.248;20.952;2022-12-29T07:19:19;10.30;;;5.00;;
17283;SDS011;8760;52.248;20.952;2022-12-29T07:21:46;10.33;;;4.50;;
17283;SDS011;8760;52.248;20.952;2022-12-29T07:24:13;10.17;;;4.90;;
17283;SDS011;8760;52.248;20.952;2022-12-29T07:26:40;8.80;;;4.93;;
17283;SDS011;8760;52.248;20.952;2022-12-29T07:29:07;8.27;;;4.87;;
17283;SDS011;8760;52.248;20.952;2022-12-29T07:31:34;7.77;;;4.53;;
17283;SDS011;8760;52.248;20.952;2022-12-29T07:34:01;8.20;;;4.57;;
17283;SDS011;8760;52.248;20.952;2022-12-29T07:36:29;9.17;;;4.80;;
17283;SDS011;8760;52.248;20.952;2022-12-29T07:38:56;10.13;;;4.63;;
17283;SDS011;8760;52.248;20.952;2022-12-29T07:41:23;8.00;;;4.60;;
17283;SDS011;8760;52.248;20.952;2022-12-29T07:43:50;7.67;;;4.20;;
17283;SDS011;8760;52.248;20.952;2022-12-29T07:46:16;9.70;;;4.70;;
17283;SDS011;8760;52.248;20.952;2022-12-29T07:48:43;9.17;;;4.30;;
17283;SDS011;8760;52.248;20.952;2022-12-29T07:51:10;9.23;;;4.53;;
17283;SDS011;8760;52.248;20.952;2022-12-29T07:53:39;10.50;;;5.00;;
17283;SDS011;8760;52.248;20.952;2022-12-29T07:56:05;7.07;;;4.20;;
17283;SDS011;8760;52.248;20.952;2022-12-29T07:58:32;7.57;;;4.33;;
17283;SDS011;8760;52.248;20.952;2022-12-29T08:00:59;7.50;;;4.13;;
17283;SDS011;8760;52.248;20.952;2022-12-29T08:03:26;6.63;;;4.33;;
17283;SDS011;8760;52.248;20.952;2022-12-29T08:05:53;7.60;;;3.90;;
17283;SDS011;8760;52.248;20.952;2022-12-29T08:08:20;7.77;;;4.50;;
17283;SDS011;8760;52.248;20.952;2022-12-29T08:10:48;7.97;;;4.10;;
17283;SDS011;8760;52.248;20.952;2022-12-29T08:13:15;8.63;;;4.53;;
17283;SDS011;8760;52.248;20.952;2022-12-29T08:15:42;8.33;;;4.00;;
17283;SDS011;8760;52.248;20.952;2022-12-29T08:18:09;9.83;;;4.20;;
17283;SDS011;8760;52.248;20.952;2022-12-29T08:20:36;10.20;;;4.40;;
17283;SDS011;8760;52.248;20.952;2022-12-29T08:23:03;7.87;;;4.17;;
17283;SDS011;8760;52.248;20.952;2022-12-29T08:25:29;9.33;;;3.80;;
17283;SDS011;8760;52.248;20.952;2022-12-29T08:27:58;8.10;;;4.10;;
17283;SDS011;8760;52.248;20.952;2022-12-29T08:30:25;6.03;;;4.07;;
17283;SDS011;8760;52.248;20.952;2022-12-29T08:32:51;7.63;;;4.83;;
17283;SDS011;8760;52.248;20.952;2022-12-29T08:35:18;6.53;;;3.93;;
17283;SDS011;8760;52.248;20.952;2022-12-29T08:37:45;7.10;;;4.30;;
17283;SDS011;8760;52.248;20.952;2022-12-29T08:40:12;8.20;;;4.30;;
17283;SDS011;8760;52.248;20.952;2022-12-29T08:42:39;6.07;;;4.10;;
17283;SDS011;8760;52.248;20.952;2022-12-29T08:45:08;6.97;;;4.37;;
17283;SDS011;8760;52.248;20.952;2022-12-29T08:47:35;6.97;;;3.90;;
17283;SDS011;8760;52.248;20.952;2022-12-29T08:50:02;6.37;;;3.73;;
17283;SDS011;8760;52.248;20.952;2022-12-29T08:52:30;6.97;;;4.27;;
17283;SDS011;8760;52.248;20.952;2022-12-29T08:54:57;5.90;;;3.73;;
17283;SDS011;8760;52.248;20.952;2022-12-29T08:57:23;5.73;;;3.50;;
17283;SDS011;8760;52.248;20.952;2022-12-29T08:59:50;6.40;;;3.70;;
17283;SDS011;8760;52.248;20.952;2022-12-29T09:02:19;6.00;;;3.90;;
17283;SDS011;8760;52.248;20.952;2022-12-29T09:04:46;7.17;;;4.10;;
17283;SDS011;8760;52.248;20.952;2022-12-29T09:07:12;6.93;;;4.10;;
17283;SDS011;8760;52.248;20.952;2022-12-29T09:09:39;7.13;;;3.70;;
17283;SDS011;8760;52.248;20.952;2022-12-29T09:12:06;6.17;;;4.00;;
17283;SDS011;8760;52.248;20.952;2022-12-29T09:14:33;8.87;;;4.03;;
17283;SDS011;8760;52.248;20.952;2022-12-29T09:17:00;7.87;;;4.00;;
17283;SDS011;8760;52.248;20.952;2022-12-29T09:19:46;8.93;;;4.30;;
17283;SDS011;8760;52.248;20.952;2022-12-29T09:22:13;6.30;;;3.70;;
17283;SDS011;8760;52.248;20.952;2022-12-29T09:24:40;5.80;;;3.57;;
17283;SDS011;8760;52.248;20.952;2022-12-29T09:27:06;6.07;;;4.00;;
17283;SDS011;8760;52.248;20.952;2022-12-29T09:29:33;6.60;;;3.73;;
17283;SDS011;8760;52.248;20.952;2022-12-29T09:32:00;6.33;;;3.97;;
17283;SDS011;8760;52.248;20.952;2022-12-29T09:34:27;6.03;;;4.17;;
17283;SDS011;8760;52.248;20.952;2022-12-29T09:36:55;7.50;;;4.30;;
17283;SDS011;8760;52.248;20.952;2022-12-29T09:39:22;5.27;;;3.63;;
17283;SDS011;8760;52.248;20.952;2022-12-29T09:41:51;6.67;;;3.97;;
17283;SDS011;8760;52.248;20.952;2022-12-29T09:44:26;5.70;;;3.40;;
17283;SDS011;8760;52.248;20.952;2022-12-29T09:46:57;10.43;;;4.10;;
17283;SDS011;8760;52.248;20.952;2022-12-29T09:49:26;5.13;;;3.47;;
17283;SDS011;8760;52.248;20.952;2022-12-29T09:51:59;6.93;;;3.77;;
17283;SDS011;8760;52.248;20.952;2022-12-29T09:54:34;5.03;;;3.47;;
17283;SDS011;8760;52.248;20.952;2022-12-29T09:57:18;6.50;;;3.87;;
17283;SDS011;8760;52.248;20.952;2022-12-29T09:59:54;5.97;;;3.80;;
17283;SDS011;8760;52.248;20.952;2022-12-29T10:02:29;7.03;;;4.03;;
17283;SDS011;8760;52.248;20.952;2022-12-29T10:05:00;7.70;;;4.17;;
17283;SDS011;8760;52.248;20.952;2022-12-29T10:07:38;6.20;;;3.60;;
17283;SDS011;8760;52.248;20.952;2022-12-29T10:10:15;8.27;;;3.90;;
17283;SDS011;8760;52.248;20.952;2022-12-29T10:12:58;8.13;;;3.97;;
17283;SDS011;8760;52.248;20.952;2022-12-29T10:15:40;8.13;;;3.80;;
17283;SDS011;8760;52.248;20.952;2022-12-29T10:18:18;5.73;;;4.07;;
17283;SDS011;8760;52.248;20.952;2022-12-29T10:20:55;5.17;;;3.93;;
17283;SDS011;8760;52.248;20.952;2022-12-29T10:23:28;8.27;;;4.87;;
17283;SDS011;8760;52.248;20.952;2022-12-29T10:25:59;8.30;;;4.33;;
17283;SDS011;8760;52.248;20.952;2022-12-29T10:28:32;7.10;;;3.47;;
17283;SDS011;8760;52.248;20.952;2022-12-29T10:31:03;8.33;;;4.10;;
17283;SDS011;8760;52.248;20.952;2022-12-29T10:33:36;9.67;;;3.77;;
17283;SDS011;8760;52.248;20.952;2022-12-29T10:36:10;7.60;;;4.03;;
17283;SDS011;8760;52.248;20.952;2022-12-29T10:38:44;6.80;;;4.43;;
17283;SDS011;8760;52.248;20.952;2022-12-29T10:41:20;6.90;;;3.90;;
17283;SDS011;8760;52.248;20.952;2022-12-29T10:43:52;6.40;;;4.03;;
17283;SDS011;8760;52.248;20.952;2022-12-29T10:46:21;8.57;;;4.10;;
17283;SDS011;8760;52.248;20.952;2022-12-29T10:48:51;9.27;;;4.00;;
17283;SDS011;8760;52.248;20.952;2022-12-29T10:51:20;7.40;;;3.63;;
17283;SDS011;8760;52.248;20.952;2022-12-29T10:53:50;8.53;;;4.03;;
17283;SDS011;8760;52.248;20.952;2022-12-29T10:56:25;8.03;;;3.87;;
17283;SDS011;8760;52.248;20.952;2022-12-29T10:58:57;8.70;;;4.17;;
17283;SDS011;8760;52.248;20.952;2022-12-29T11:01:30;10.40;;;4.23;;
17283;SDS011;8760;52.248;20.952;2022-12-29T11:04:07;5.70;;;3.40;;
17283;SDS011;8760;52.248;20.952;2022-12-29T11:06:57;5.73;;;3.97;;
17283;SDS011;8760;52.248;20.952;2022-12-29T11:09:28;9.47;;;4.67;;
17283;SDS011;8760;52.248;20.952;2022-12-29T11:11:57;6.90;;;4.10;;
17283;SDS011;8760;52.248;20.952;2022-12-29T11:14:26;8.57;;;4.23;;
17283;SDS011;8760;52.248;20.952;2022-12-29T11:16:57;8.93;;;3.77;;
17283;SDS011;8760;52.248;20.952;2022-12-29T11:19:26;7.43;;;4.20;;
17283;SDS011;8760;52.248;20.952;2022-12-29T11:21:55;8.23;;;4.03;;
17283;SDS011;8760;52.248;20.952;2022-12-29T11:24:44;7.33;;;4.00;;
17283;SDS011;8760;52.248;20.952;2022-12-29T11:27:14;7.40;;;4.33;;
17283;SDS011;8760;52.248;20.952;2022-12-29T11:29:42;9.33;;;4.30;;
17283;SDS011;8760;52.248;20.952;2022-12-29T11:32:12;6.67;;;4.00;;
17283;SDS011;8760;52.248;20.952;2022-12-29T11:34:43;7.70;;;4.27;;
17283;SDS011;8760;52.248;20.952;2022-12-29T11:37:11;7.20;;;4.13;;
17283;SDS011;8760;52.248;20.952;2022-12-29T11:39:40;8.03;;;4.00;;
17283;SDS011;8760;52.248;20.952;2022-12-29T11:42:16;8.77;;;4.40;;
17283;SDS011;8760;52.248;20.952;2022-12-29T11:44:45;6.70;;;4.07;;
17283;SDS011;8760;52.248;20.952;2022-12-29T11:47:14;5.50;;;4.00;;
17283;SDS011;8760;52.248;20.952;2022-12-29T11:49:52;7.50;;;5.00;;
17283;SDS011;8760;52.248;20.952;2022-12-29T11:52:22;5.63;;;3.63;;
17283;SDS011;8760;52.248;20.952;2022-12-29T11:54:53;8.23;;;4.20;;
17283;SDS011;8760;52.248;20.952;2022-12-29T11:57:21;6.07;;;4.00;;
17283;SDS011;8760;52.248;20.952;2022-12-29T11:59:51;7.53;;;3.90;;
17283;SDS011;8760;52.248;20.952;2022-12-29T12:02:30;7.47;;;4.33;;
17283;SDS011;8760;52.248;20.952;2022-12-29T12:05:08;7.30;;;4.10;;
17283;SDS011;8760;52.248;20.952;2022-12-29T12:07:45;6.17;;;4.17;;
17283;SDS011;8760;52.248;20.952;2022-12-29T12:10:28;9.60;;;4.63;;
17283;SDS011;8760;52.248;20.952;2022-12-29T12:13:03;8.10;;;4.30;;
17283;SDS011;8760;52.248;20.952;2022-12-29T12:15:39;6.37;;;4.17;;
17283;SDS011;8760;52.248;20.952;2022-12-29T12:18:11;8.87;;;4.10;;
17283;SDS011;8760;52.248;20.952;2022-12-29T12:20:45;6.77;;;3.80;;
17283;SDS011;8760;52.248;20.952;2022-12-29T12:26:32;6.17;;;3.90;;
17283;SDS011;8760;52.248;20.952;2022-12-29T12:29:04;6.33;;;3.70;;
17283;SDS011;8760;52.248;20.952;2022-12-29T12:31:40;7.77;;;4.20;;
17283;SDS011;8760;52.248;20.952;2022-12-29T12:34:13;6.80;;;4.17;;
17283;SDS011;8760;52.248;20.952;2022-12-29T12:36:50;8.23;;;4.43;;
17283;SDS011;8760;52.248;20.952;2022-12-29T12:39:31;7.30;;;3.80;;
17283;SDS011;8760;52.248;20.952;2022-12-29T12:42:13;8.47;;;4.40;;
17283;SDS011;8760;52.248;20.952;2022-12-29T12:44:55;8.33;;;4.03;;
17283;SDS011;8760;52.248;20.952;2022-12-29T12:47:48;6.57;;;3.80;;
17283;SDS011;8760;52.248;20.952;2022-12-29T12:50:29;7.37;;;3.70;;
17283;SDS011;8760;52.248;20.952;2022-12-29T12:53:12;6.57;;;4.23;;
17283;SDS011;8760;52.248;20.952;2022-12-29T12:56:01;6.17;;;4.07;;
17283;SDS011;8760;52.248;20.952;2022-12-29T12:58:45;7.90;;;4.00;;
17283;SDS011;8760;52.248;20.952;2022-12-29T13:01:23;5.70;;;4.03;;
17283;SDS011;8760;52.248;20.952;2022-12-29T13:07:04;7.90;;;3.97;;
17283;SDS011;8760;52.248;20.952;2022-12-29T13:09:44;6.77;;;4.20;;
17283;SDS011;8760;52.248;20.952;2022-12-29T13:12:22;7.27;;;3.90;;
17283;SDS011;8760;52.248;20.952;2022-12-29T13:15:03;5.73;;;3.53;;
17283;SDS011;8760;52.248;20.952;2022-12-29T13:17:40;5.73;;;3.80;;
17283;SDS011;8760;52.248;20.952;2022-12-29T13:20:18;5.73;;;3.60;;
17283;SDS011;8760;52.248;20.952;2022-12-29T13:22:53;8.70;;;4.13;;
17283;SDS011;8760;52.248;20.952;2022-12-29T13:25:27;6.10;;;3.80;;
17283;SDS011;8760;52.248;20.952;2022-12-29T13:28:03;8.20;;;4.17;;
17283;SDS011;8760;52.248;20.952;2022-12-29T13:30:39;6.53;;;4.40;;
17283;SDS011;8760;52.248;20.952;2022-12-29T13:33:11;7.07;;;3.83;;
17283;SDS011;8760;52.248;20.952;2022-12-29T13:35:54;7.90;;;4.03;;
17283;SDS011;8760;52.248;20.952;2022-12-29T13:38:29;7.27;;;4.10;;
17283;SDS011;8760;52.248;20.952;2022-12-29T13:41:00;9.53;;;4.20;;
17283;SDS011;8760;52.248;20.952;2022-12-29T13:43:32;5.00;;;3.80;;
17283;SDS011;8760;52.248;20.952;2022-12-29T13:46:06;6.83;;;4.37;;
17283;SDS011;8760;52.248;20.952;2022-12-29T13:48:37;7.30;;;4.23;;
17283;SDS011;8760;52.248;20.952;2022-12-29T13:51:09;8.40;;;4.10;;
17283;SDS011;8760;52.248;20.952;2022-12-29T13:53:41;7.57;;;4.23;;
17283;SDS011;8760;52.248;20.952;2022-12-29T13:56:19;6.67;;;3.80;;
17283;SDS011;8760;52.248;20.952;2022-12-29T13:58:52;6.13;;;4.43;;
17283;SDS011;8760;52.248;20.952;2022-12-29T14:01:27;9.13;;;4.27;;
17283;SDS011;8760;52.248;20.952;2022-12-29T14:03:58;8.20;;;4.30;;
17283;SDS011;8760;52.248;20.952;2022-12-29T14:06:27;6.30;;;4.23;;
17283;SDS011;8760;52.248;20.952;2022-12-29T14:08:56;8.40;;;4.00;;
17283;SDS011;8760;52.248;20.952;2022-12-29T14:11:29;9.40;;;4.50;;
17283;SDS011;8760;52.248;20.952;2022-12-29T14:13:58;7.50;;;3.77;;
17283;SDS011;8760;52.248;20.952;2022-12-29T14:16:32;7.00;;;3.93;;
17283;SDS011;8760;52.248;20.952;2022-12-29T14:19:04;8.17;;;4.40;;
17283;SDS011;8760;52.248;20.952;2022-12-29T14:21:36;6.60;;;4.23;;
17283;SDS011;8760;52.248;20.952;2022-12-29T14:33:14;6.37;;;3.90;;
17283;SDS011;8760;52.248;20.952;2022-12-29T14:35:42;8.60;;;4.40;;
17283;SDS011;8760;52.248;20.952;2022-12-29T14:41:26;8.93;;;4.30;;
17283;SDS011;8760;52.248;20.952;2022-12-29T14:44:00;9.33;;;4.70;;
17283;SDS011;8760;52.248;20.952;2022-12-29T14:49:22;6.97;;;4.73;;
17283;SDS011;8760;52.248;20.952;2022-12-29T14:51:50;5.83;;;4.23;;
17283;SDS011;8760;52.248;20.952;2022-12-29T14:54:40;6.07;;;4.17;;
17283;SDS011;8760;52.248;20.952;2022-12-29T14:57:18;8.37;;;4.80;;
17283;SDS011;8760;52.248;20.952;2022-12-29T14:59:48;7.27;;;4.77;;
17283;SDS011;8760;52.248;20.952;2022-12-29T15:02:21;9.87;;;4.50;;
17283;SDS011;8760;52.248;20.952;2022-12-29T15:04:52;7.40;;;4.43;;
17283;SDS011;8760;52.248;20.952;2022-12-29T15:07:24;7.33;;;4.73;;
17283;SDS011;8760;52.248;20.952;2022-12-29T15:09:56;9.93;;;4.97;;
17283;SDS011;8760;52.248;20.952;2022-12-29T15:12:30;8.23;;;5.20;;
17283;SDS011;8760;52.248;20.952;2022-12-29T15:15:10;6.97;;;5.10;;
17283;SDS011;8760;52.248;20.952;2022-12-29T15:17:44;10.20;;;5.17;;
17283;SDS011;8760;52.248;20.952;2022-12-29T15:20:19;7.83;;;4.90;;
17283;SDS011;8760;52.248;20.952;2022-12-29T15:22:50;11.40;;;4.83;;
17283;SDS011;8760;52.248;20.952;2022-12-29T15:25:20;8.67;;;4.53;;
17283;SDS011;8760;52.248;20.952;2022-12-29T15:27:48;7.77;;;5.00;;
17283;SDS011;8760;52.248;20.952;2022-12-29T15:30:17;10.37;;;5.00;;
17283;SDS011;8760;52.248;20.952;2022-12-29T15:32:45;7.17;;;4.57;;
17283;SDS011;8760;52.248;20.952;2022-12-29T15:35:23;9.43;;;5.00;;